Time;durP1;ratioP1;P1;durP2;ratioP2;P2;SDS_P1;SDS_P2;PMS_P1;PMS_P2;Temp;Humidity;BMP_temperature;BMP_pressure;BME280_temperature;BME280_humidity;BME280_pressure;Samples;Min_cycle;Max_cycle;Signal;HPM_P1;HPM_P2
2021/09/06 00:02:24;;;;;;;8.20;7.50;;;15.90;99.90;;;;;;4957178;28;20838;-82
2021/09/06 00:04:51;;;;;;;14.30;8.70;;;15.90;99.90;;;;;;4957544;29;20462;-82
2021/09/06 00:07:18;;;;;;;9.73;8.87;;;15.90;99.90;;;;;;4957553;29;20839;-82
2021/09/06 00:09:46;;;;;;;9.17;8.23;;;15.90;99.90;;;;;;4957367;29;20462;-82
2021/09/06 00:12:13;;;;;;;7.90;7.20;;;15.90;99.90;;;;;;4956748;28;20467;-82
2021/09/06 00:14:40;;;;;;;8.37;7.57;;;15.90;99.90;;;;;;4957567;29;20492;-82
2021/09/06 00:17:08;;;;;;;7.37;6.77;;;15.90;99.90;;;;;;4957323;29;20547;-82
2021/09/06 00:19:34;;;;;;;9.60;8.53;;;15.80;99.90;;;;;;4957111;29;20830;-82
2021/09/06 00:22:01;;;;;;;7.43;6.73;;;15.80;99.90;;;;;;4957885;29;20463;-83
2021/09/06 00:24:28;;;;;;;11.53;10.33;;;15.80;99.90;;;;;;4952294;29;20967;-82
2021/09/06 00:26:55;;;;;;;9.17;8.40;;;15.80;99.90;;;;;;4946679;29;20496;-82
2021/09/06 00:29:21;;;;;;;10.43;8.50;;;15.80;99.90;;;;;;4947647;29;20447;-82
2021/09/06 00:31:48;;;;;;;9.40;8.53;;;15.80;99.90;;;;;;4947257;29;20459;-82
2021/09/06 00:34:16;;;;;;;8.63;7.73;;;15.70;99.90;;;;;;4948125;29;20486;-82
2021/09/06 00:36:43;;;;;;;8.20;7.50;;;15.70;99.90;;;;;;4940292;29;20476;-82
2021/09/06 00:39:10;;;;;;;9.20;7.60;;;15.70;99.90;;;;;;4938042;29;20942;-82
2021/09/06 00:41:37;;;;;;;8.33;7.63;;;15.70;99.90;;;;;;4937180;29;20978;-82
2021/09/06 00:44:04;;;;;;;8.90;8.10;;;15.60;99.90;;;;;;4938325;29;20459;-82
2021/09/06 00:46:31;;;;;;;9.73;8.73;;;15.60;99.90;;;;;;4937726;29;20500;-82
2021/09/06 00:48:57;;;;;;;8.97;8.17;;;15.60;99.90;;;;;;4938105;29;20455;-82
2021/09/06 00:51:25;;;;;;;8.27;7.57;;;15.60;99.90;;;;;;4936987;29;20466;-82
2021/09/06 00:53:52;;;;;;;8.40;7.70;;;15.50;99.90;;;;;;4938198;29;20494;-82
2021/09/06 00:56:19;;;;;;;9.07;8.17;;;15.50;99.90;;;;;;4937547;29;20496;-82
2021/09/06 00:58:46;;;;;;;9.47;8.67;;;15.50;99.90;;;;;;4937834;29;20463;-82
2021/09/06 01:01:13;;;;;;;9.37;8.50;;;15.50;99.90;;;;;;4936846;29;20462;-82
2021/09/06 01:03:39;;;;;;;9.30;8.53;;;15.40;99.90;;;;;;4935137;29;20473;-82
2021/09/06 01:06:06;;;;;;;9.37;8.20;;;15.40;99.90;;;;;;4935600;29;20481;-82
2021/09/06 01:08:34;;;;;;;7.70;6.90;;;15.40;99.90;;;;;;4935616;29;20453;-81
2021/09/06 01:11:01;;;;;;;8.73;7.83;;;15.40;99.90;;;;;;4936692;29;20461;-82
2021/09/06 01:13:28;;;;;;;7.87;7.17;;;15.40;99.90;;;;;;4935211;29;20491;-82
2021/09/06 01:15:55;;;;;;;9.53;8.47;;;15.30;99.90;;;;;;4935707;29;20476;-82
2021/09/06 01:18:21;;;;;;;8.67;7.87;;;15.30;99.90;;;;;;4935564;29;20451;-82
2021/09/06 01:20:48;;;;;;;7.87;7.20;;;15.30;99.90;;;;;;4935787;29;20627;-82
2021/09/06 01:23:15;;;;;;;8.67;7.77;;;15.30;99.90;;;;;;4936092;29;20461;-82
2021/09/06 01:25:43;;;;;;;10.43;9.37;;;15.30;99.90;;;;;;4939543;29;20840;-82
2021/09/06 01:28:11;;;;;;;10.03;9.13;;;15.20;99.90;;;;;;4940606;29;20450;-82
2021/09/06 01:30:39;;;;;;;8.27;7.67;;;15.20;99.90;;;;;;4939964;29;20457;-82
2021/09/06 01:33:06;;;;;;;8.37;7.67;;;15.20;99.90;;;;;;4938877;29;20957;-82
2021/09/06 01:35:33;;;;;;;9.03;8.17;;;15.20;99.90;;;;;;4939479;29;20474;-82
2021/09/06 01:38:00;;;;;;;7.90;7.17;;;15.20;99.90;;;;;;4940090;29;20821;-82
2021/09/06 01:40:27;;;;;;;10.20;8.43;;;15.20;99.90;;;;;;4940047;29;20449;-81
2021/09/06 01:42:54;;;;;;;9.87;8.93;;;15.10;99.90;;;;;;4939049;29;20454;-82
2021/09/06 01:45:22;;;;;;;8.73;7.80;;;15.10;99.90;;;;;;4939433;29;20464;-81
2021/09/06 01:47:49;;;;;;;9.13;8.30;;;15.10;99.90;;;;;;4939553;29;20454;-82
2021/09/06 01:50:15;;;;;;;9.27;8.47;;;15.00;99.90;;;;;;4939511;29;20458;-81
2021/09/06 01:52:42;;;;;;;10.30;9.37;;;15.00;99.90;;;;;;4938625;29;20452;-82
2021/09/06 01:55:10;;;;;;;9.13;8.23;;;15.00;99.90;;;;;;4939403;29;20503;-82
2021/09/06 01:57:36;;;;;;;7.57;6.97;;;14.90;99.90;;;;;;4947032;29;20464;-81
2021/09/06 02:00:04;;;;;;;8.10;7.30;;;14.90;99.90;;;;;;4947882;29;20491;-82
2021/09/06 02:02:32;;;;;;;9.77;8.87;;;14.90;99.90;;;;;;4947175;29;20457;-81
2021/09/06 02:04:59;;;;;;;8.60;7.70;;;14.90;99.90;;;;;;4946844;29;20450;-82
2021/09/06 02:07:26;;;;;;;10.20;9.27;;;14.80;99.90;;;;;;4947191;29;20473;-82
2021/09/06 02:09:52;;;;;;;9.27;8.33;;;14.80;99.90;;;;;;4942360;29;20454;-82
2021/09/06 02:12:19;;;;;;;9.60;8.70;;;14.80;99.90;;;;;;4941126;29;20457;-82
2021/09/06 02:14:46;;;;;;;9.00;7.93;;;14.80;99.90;;;;;;4941557;29;20834;-82
2021/09/06 02:17:13;;;;;;;9.70;8.77;;;14.70;99.90;;;;;;4941618;29;20478;-81
2021/09/06 02:19:41;;;;;;;9.47;8.57;;;14.70;99.90;;;;;;4941703;29;20458;-81
2021/09/06 02:22:07;;;;;;;13.20;9.07;;;14.70;99.90;;;;;;4941165;29;20459;-81
2021/09/06 02:24:34;;;;;;;9.17;8.40;;;14.70;99.90;;;;;;4941547;29;20453;-81
2021/09/06 02:27:01;;;;;;;8.40;7.70;;;14.70;99.90;;;;;;4941207;29;20479;-81
2021/09/06 02:29:28;;;;;;;10.60;9.53;;;14.60;99.90;;;;;;4940942;29;20461;-81
2021/09/06 02:31:54;;;;;;;11.90;8.37;;;14.60;99.90;;;;;;4941147;29;20454;-81
2021/09/06 02:34:21;;;;;;;10.77;8.63;;;14.60;99.90;;;;;;4940925;29;20489;-81
2021/09/06 02:36:49;;;;;;;9.17;8.37;;;14.50;99.90;;;;;;4940956;29;20923;-81
2021/09/06 02:39:16;;;;;;;9.33;8.43;;;14.50;99.90;;;;;;4940248;29;20454;-81
2021/09/06 02:41:42;;;;;;;9.90;9.00;;;14.50;99.90;;;;;;4939113;29;20449;-81
2021/09/06 02:44:09;;;;;;;9.23;8.43;;;14.40;99.90;;;;;;4941268;29;20449;-82
2021/09/06 02:46:36;;;;;;;8.67;7.90;;;14.40;99.90;;;;;;4942627;29;20851;-82
2021/09/06 02:49:03;;;;;;;10.57;9.40;;;14.40;99.90;;;;;;4942328;29;20460;-82
2021/09/06 02:51:29;;;;;;;9.40;8.60;;;14.40;99.90;;;;;;4940240;29;20454;-82
2021/09/06 02:53:57;;;;;;;10.17;9.27;;;14.40;99.90;;;;;;4940449;29;20489;-82
2021/09/06 02:56:24;;;;;;;8.50;7.77;;;14.30;99.90;;;;;;4939945;29;20563;-82
2021/09/06 02:58:51;;;;;;;10.20;8.40;;;14.30;99.90;;;;;;4940237;29;20831;-82
2021/09/06 03:01:17;;;;;;;9.37;8.47;;;14.30;99.90;;;;;;4941129;29;20458;-82
2021/09/06 03:03:44;;;;;;;11.27;10.10;;;14.30;99.90;;;;;;4940199;29;20449;-82
2021/09/06 03:06:11;;;;;;;11.23;9.90;;;14.20;99.90;;;;;;4940641;29;20845;-82
2021/09/06 03:08:37;;;;;;;9.50;8.70;;;14.20;99.90;;;;;;4940373;29;20458;-81
2021/09/06 03:11:06;;;;;;;9.53;8.67;;;14.20;99.90;;;;;;4940460;29;20475;-83
2021/09/06 03:13:32;;;;;;;11.40;10.00;;;14.20;99.90;;;;;;4940620;29;20461;-83
2021/09/06 03:15:59;;;;;;;11.07;9.90;;;14.20;99.90;;;;;;4940823;29;20470;-82
2021/09/06 03:18:26;;;;;;;9.27;8.47;;;14.20;99.90;;;;;;4940233;29;20450;-82
2021/09/06 03:20:53;;;;;;;10.63;8.40;;;14.20;99.90;;;;;;4939626;29;20941;-82
2021/09/06 03:23:20;;;;;;;11.50;9.63;;;14.20;99.90;;;;;;4939413;29;20460;-82
2021/09/06 03:25:46;;;;;;;9.97;9.07;;;14.10;99.90;;;;;;4939912;29;20485;-82
2021/09/06 03:28:14;;;;;;;12.03;10.93;;;14.10;99.90;;;;;;4939905;29;20465;-82
2021/09/06 03:30:41;;;;;;;9.83;8.93;;;14.10;99.90;;;;;;4939659;29;20454;-82
2021/09/06 03:33:13;;;;;;;9.77;8.67;;;14.00;99.90;;;;;;4939670;29;20457;-82
2021/09/06 03:35:40;;;;;;;9.37;8.40;;;14.00;99.90;;;;;;4939835;29;20499;-82
2021/09/06 03:38:06;;;;;;;9.17;8.37;;;14.00;99.90;;;;;;4940445;29;20453;-81
2021/09/06 03:40:33;;;;;;;9.70;8.80;;;14.00;99.90;;;;;;4939838;29;20454;-83
2021/09/06 03:43:00;;;;;;;10.27;9.20;;;13.90;99.90;;;;;;4939420;29;20459;-82
2021/09/06 03:45:28;;;;;;;10.93;9.33;;;13.90;99.90;;;;;;4938600;29;20445;-82
2021/09/06 03:47:55;;;;;;;9.70;8.90;;;13.90;99.90;;;;;;4939317;29;20450;-82
2021/09/06 03:50:21;;;;;;;12.00;9.93;;;13.90;99.90;;;;;;4939208;29;20457;-82
2021/09/06 03:52:48;;;;;;;11.63;10.50;;;13.80;99.90;;;;;;4938806;29;20466;-82
2021/09/06 03:55:15;;;;;;;10.30;9.20;;;13.80;99.90;;;;;;4940068;29;20487;-82
2021/09/06 03:57:42;;;;;;;11.27;10.27;;;13.70;99.90;;;;;;4939978;29;20458;-82
2021/09/06 04:00:10;;;;;;;9.47;8.50;;;13.70;99.90;;;;;;4939342;29;20454;-82
2021/09/06 04:02:38;;;;;;;12.93;10.07;;;13.70;99.90;;;;;;4937845;29;20454;-81
2021/09/06 04:05:05;;;;;;;11.70;10.60;;;13.70;99.90;;;;;;4938601;29;20618;-82
2021/09/06 04:07:32;;;;;;;10.33;9.43;;;13.60;99.90;;;;;;4938658;29;20500;-82
2021/09/06 04:09:59;;;;;;;11.37;10.03;;;13.60;99.90;;;;;;4938799;29;20454;-82
2021/09/06 04:12:25;;;;;;;10.43;9.53;;;13.60;99.90;;;;;;4938019;29;20458;-82
2021/09/06 04:14:52;;;;;;;11.70;10.50;;;13.60;99.90;;;;;;4938467;29;20489;-82
2021/09/06 04:17:19;;;;;;;12.10;11.10;;;13.60;99.90;;;;;;4937866;29;20476;-81
2021/09/06 04:19:47;;;;;;;11.40;10.33;;;13.60;99.90;;;;;;4938348;29;20454;-82
2021/09/06 04:22:13;;;;;;;10.43;9.43;;;13.60;99.90;;;;;;4937447;29;20457;-82
2021/09/06 04:24:40;;;;;;;10.90;9.80;;;13.60;99.90;;;;;;4940688;29;20453;-82
2021/09/06 04:27:07;;;;;;;10.27;8.97;;;13.50;99.90;;;;;;4940149;29;20467;-82
2021/09/06 04:29:34;;;;;;;10.10;9.20;;;13.50;99.90;;;;;;4940022;29;20453;-82
2021/09/06 04:32:01;;;;;;;10.27;8.87;;;13.50;99.90;;;;;;4939185;29;20449;-82
2021/09/06 04:34:28;;;;;;;9.60;8.70;;;13.50;99.90;;;;;;4939630;29;20481;-82
2021/09/06 04:36:56;;;;;;;10.60;9.70;;;13.40;99.90;;;;;;4940028;29;20474;-82
2021/09/06 04:39:23;;;;;;;11.07;9.97;;;13.40;99.90;;;;;;4940335;29;20445;-82
2021/09/06 04:41:50;;;;;;;9.50;8.50;;;13.40;99.90;;;;;;4938436;29;20454;-81
2021/09/06 04:44:17;;;;;;;8.80;7.67;;;13.40;99.90;;;;;;4941389;29;20453;-82
2021/09/06 04:46:44;;;;;;;9.93;9.00;;;13.40;99.90;;;;;;4942287;29;20473;-82
2021/09/06 04:49:11;;;;;;;9.47;8.70;;;13.30;99.90;;;;;;4939865;29;20457;-82
2021/09/06 04:51:37;;;;;;;9.03;8.20;;;13.30;99.90;;;;;;4938025;29;20460;-82
2021/09/06 04:54:05;;;;;;;10.50;8.90;;;13.30;99.90;;;;;;4938969;29;20454;-82
2021/09/06 04:56:32;;;;;;;11.23;10.07;;;13.30;99.90;;;;;;4938557;29;20486;-82
2021/09/06 04:58:59;;;;;;;11.60;9.90;;;13.30;99.90;;;;;;4939135;29;20465;-82
2021/09/06 05:01:26;;;;;;;9.77;8.87;;;13.30;99.90;;;;;;4937989;29;20465;-82
2021/09/06 05:03:52;;;;;;;10.13;9.33;;;13.20;99.90;;;;;;4938561;29;20981;-82
2021/09/06 05:06:19;;;;;;;10.20;9.20;;;13.20;99.90;;;;;;4939329;29;20477;-82
2021/09/06 05:08:46;;;;;;;10.77;9.83;;;13.20;99.90;;;;;;4939696;29;20461;-82
2021/09/06 05:11:14;;;;;;;15.93;10.80;;;13.20;99.90;;;;;;4938542;29;20454;-83
2021/09/06 05:13:41;;;;;;;10.33;9.10;;;13.20;99.90;;;;;;4937697;29;20461;-83
2021/09/06 05:16:08;;;;;;;9.50;8.60;;;13.20;99.90;;;;;;4938121;29;20504;-82
2021/09/06 05:18:34;;;;;;;9.60;8.70;;;13.20;99.90;;;;;;4938623;29;20454;-82
2021/09/06 05:21:02;;;;;;;10.93;9.90;;;13.20;99.90;;;;;;4938485;29;20805;-82
2021/09/06 05:23:29;;;;;;;12.33;11.13;;;13.30;99.90;;;;;;4937819;29;20485;-82
2021/09/06 05:25:55;;;;;;;10.10;9.20;;;13.30;99.90;;;;;;4937765;29;20469;-82
2021/09/06 05:28:24;;;;;;;11.33;10.20;;;13.30;99.90;;;;;;4937969;29;20453;-82
2021/09/06 05:30:50;;;;;;;12.07;10.97;;;13.40;99.90;;;;;;4937634;29;20468;-82
2021/09/06 05:33:17;;;;;;;15.57;12.90;;;13.40;99.90;;;;;;4936946;29;20449;-83
2021/09/06 05:35:44;;;;;;;12.07;11.00;;;13.40;99.90;;;;;;4937821;29;20493;-83
2021/09/06 05:38:10;;;;;;;14.77;13.43;;;13.40;99.90;;;;;;4938976;29;20457;-82
2021/09/06 05:40:37;;;;;;;12.93;11.67;;;13.50;99.90;;;;;;4940889;29;20454;-84
2021/09/06 05:43:04;;;;;;;13.17;11.87;;;13.60;99.90;;;;;;4938519;29;20453;-82
2021/09/06 05:45:32;;;;;;;14.50;13.00;;;13.60;99.90;;;;;;4937152;29;20458;-82
2021/09/06 05:47:59;;;;;;;13.73;12.43;;;13.60;99.90;;;;;;4937021;29;20460;-82
2021/09/06 05:50:26;;;;;;;12.53;11.37;;;13.70;99.90;;;;;;4937865;29;20461;-82
2021/09/06 05:52:53;;;;;;;15.70;12.37;;;13.80;99.90;;;;;;4937333;29;20544;-83
2021/09/06 05:55:20;;;;;;;14.37;12.90;;;13.80;99.90;;;;;;4937538;29;20493;-83
2021/09/06 05:57:47;;;;;;;11.80;10.60;;;13.90;99.90;;;;;;4937305;29;20453;-82
2021/09/06 06:00:14;;;;;;;13.47;12.07;;;13.90;99.90;;;;;;4938505;29;20450;-82
2021/09/06 06:02:42;;;;;;;16.00;13.00;;;13.90;99.90;;;;;;4936754;29;20449;-81
2021/09/06 06:05:10;;;;;;;12.03;10.93;;;14.00;99.90;;;;;;4937544;29;20449;-81
2021/09/06 06:07:36;;;;;;;20.40;13.50;;;14.10;99.90;;;;;;4938232;29;20998;-83
2021/09/06 06:10:03;;;;;;;16.47;12.60;;;14.10;99.90;;;;;;4941114;29;20457;-82
2021/09/06 06:12:30;;;;;;;14.50;12.20;;;14.20;99.90;;;;;;4946205;29;20449;-82
2021/09/06 06:14:59;;;;;;;15.47;14.00;;;14.20;99.90;;;;;;4955614;29;20549;-82
2021/09/06 06:17:26;;;;;;;16.47;11.50;;;14.30;99.90;;;;;;4942783;29;20488;-82
2021/09/06 06:19:54;;;;;;;14.47;12.90;;;14.30;99.90;;;;;;4940976;29;20462;-81
2021/09/06 06:22:21;;;;;;;12.10;11.00;;;14.40;99.90;;;;;;4939287;29;20462;-81
2021/09/06 06:24:48;;;;;;;14.80;12.03;;;14.50;99.90;;;;;;4941197;29;20458;-81
2021/09/06 06:27:15;;;;;;;13.53;12.33;;;14.60;99.90;;;;;;4941929;29;20482;-80
2021/09/06 06:29:41;;;;;;;14.63;13.27;;;14.70;99.90;;;;;;4942201;29;20531;-80
2021/09/06 06:32:08;;;;;;;16.67;13.80;;;14.80;99.90;;;;;;4941226;29;20458;-80
2021/09/06 06:34:35;;;;;;;15.07;13.27;;;14.90;99.90;;;;;;4941239;29;20454;-81
2021/09/06 06:37:03;;;;;;;14.77;13.30;;;15.00;99.90;;;;;;4942075;29;21001;-80
2021/09/06 06:39:30;;;;;;;15.57;11.83;;;15.10;99.90;;;;;;4942405;29;20453;-80
2021/09/06 06:41:58;;;;;;;13.00;11.43;;;15.20;99.90;;;;;;4940906;29;21159;-80
2021/09/06 06:44:25;;;;;;;13.63;11.63;;;15.30;99.90;;;;;;4941900;29;20830;-80
2021/09/06 06:46:52;;;;;;;11.43;10.40;;;15.50;99.90;;;;;;4940856;29;20470;-80
2021/09/06 06:49:19;;;;;;;14.77;13.23;;;15.60;99.90;;;;;;4940503;29;20462;-83
2021/09/06 06:51:46;;;;;;;13.10;11.70;;;15.70;99.90;;;;;;4940326;29;20467;-82
2021/09/06 06:54:14;;;;;;;15.77;12.30;;;15.80;99.90;;;;;;4949194;29;20561;-82
2021/09/06 06:56:40;;;;;;;12.70;11.40;;;15.90;99.90;;;;;;4954955;28;20500;-82
2021/09/06 06:59:07;;;;;;;13.57;12.37;;;16.00;99.90;;;;;;4955631;29;20788;-83
2021/09/06 07:01:34;;;;;;;13.23;11.93;;;16.10;99.90;;;;;;4959099;29;20460;-82
2021/09/06 07:04:01;;;;;;;12.80;11.70;;;16.20;99.90;;;;;;4958654;29;20974;-84
2021/09/06 07:06:27;;;;;;;12.67;11.47;;;16.40;99.90;;;;;;4958032;28;20574;-83
2021/09/06 07:08:54;;;;;;;11.80;10.70;;;16.50;99.90;;;;;;4959412;29;20461;-83
2021/09/06 07:11:22;;;;;;;11.50;10.30;;;16.60;99.90;;;;;;4959600;28;20458;-84
2021/09/06 07:13:49;;;;;;;14.70;13.33;;;16.60;99.90;;;;;;4959693;29;20513;-84
2021/09/06 07:16:16;;;;;;;12.27;11.23;;;16.80;99.90;;;;;;4959322;29;20498;-83
2021/09/06 07:19:00;;;;;;;12.47;11.17;;;16.90;99.90;;;;;;4956863;28;20457;-86
2021/09/06 07:21:27;;;;;;;13.27;11.30;;;17.00;99.90;;;;;;4958522;28;20826;-86
2021/09/06 07:23:54;;;;;;;13.13;11.90;;;17.10;99.90;;;;;;4959871;28;20451;-85
2021/09/06 07:26:22;;;;;;;12.80;11.50;;;17.20;99.90;;;;;;4960995;29;20552;-85
2021/09/06 07:28:49;;;;;;;16.40;11.47;;;17.30;99.90;;;;;;4960190;29;20460;-86
2021/09/06 07:31:16;;;;;;;13.83;12.37;;;17.30;99.90;;;;;;4958514;28;20463;-85
2021/09/06 07:33:43;;;;;;;13.10;11.77;;;17.50;99.90;;;;;;4971879;28;20462;-86
2021/09/06 07:36:10;;;;;;;14.20;11.40;;;17.60;99.90;;;;;;4976472;28;20495;-86
2021/09/06 07:38:36;;;;;;;11.10;9.97;;;17.70;99.90;;;;;;4962852;28;20462;-85
2021/09/06 07:41:03;;;;;;;13.93;11.00;;;17.70;99.90;;;;;;4958118;29;20457;-84
2021/09/06 07:43:31;;;;;;;11.40;9.97;;;17.80;99.90;;;;;;4957707;29;20830;-85
2021/09/06 07:45:58;;;;;;;11.23;10.00;;;17.90;99.90;;;;;;4957641;28;20479;-85
2021/09/06 07:48:25;;;;;;;14.63;10.37;;;18.00;99.90;;;;;;4957704;28;20463;-86
2021/09/06 07:50:52;;;;;;;10.70;9.60;;;18.10;99.90;;;;;;4958975;28;20490;-84
2021/09/06 07:53:19;;;;;;;11.10;10.00;;;18.20;99.90;;;;;;4958429;29;21003;-85
2021/09/06 07:55:46;;;;;;;9.30;7.80;;;18.30;99.90;;;;;;4958388;28;20499;-85
2021/09/06 07:58:13;;;;;;;10.73;8.70;;;18.40;99.90;;;;;;4954256;29;20546;-86
2021/09/06 08:00:41;;;;;;;8.67;7.77;;;18.40;99.90;;;;;;4952634;28;20469;-85
2021/09/06 08:03:08;;;;;;;9.10;7.87;;;18.60;99.90;;;;;;4940091;28;20461;-86
2021/09/06 08:05:35;;;;;;;8.23;6.80;;;18.70;99.90;;;;;;4938208;29;20479;-85
2021/09/06 08:08:01;;;;;;;8.10;7.50;;;18.80;99.90;;;;;;4936334;29;20449;-86
2021/09/06 08:10:28;;;;;;;8.60;7.70;;;18.90;99.90;;;;;;4935513;29;20488;-86
2021/09/06 08:12:55;;;;;;;8.60;7.10;;;19.00;99.90;;;;;;4934943;29;21290;-86
2021/09/06 08:15:22;;;;;;;8.90;8.17;;;19.10;99.90;;;;;;4935636;29;21027;-85
2021/09/06 08:17:51;;;;;;;12.30;8.63;;;19.20;99.90;;;;;;4936095;29;20453;-85
2021/09/06 08:20:19;;;;;;;8.00;7.30;;;19.30;99.90;;;;;;4936085;29;20466;-86
2021/09/06 08:22:46;;;;;;;8.10;7.30;;;19.40;99.90;;;;;;4935466;29;20457;-84
2021/09/06 08:25:14;;;;;;;8.50;7.77;;;19.60;99.90;;;;;;4935976;28;20457;-84
2021/09/06 08:27:41;;;;;;;7.70;6.90;;;19.70;99.90;;;;;;4936965;29;20979;-82
2021/09/06 08:30:10;;;;;;;8.13;7.37;;;19.80;99.90;;;;;;4935592;29;20457;-83
2021/09/06 08:32:37;;;;;;;8.03;7.23;;;19.90;99.90;;;;;;4935247;29;20458;-83
2021/09/06 08:35:07;;;;;;;8.13;7.33;;;20.00;99.50;;;;;;4936116;29;20454;-83
2021/09/06 08:37:34;;;;;;;7.60;6.80;;;20.10;99.70;;;;;;4935247;29;20503;-84
2021/09/06 08:40:00;;;;;;;8.50;7.70;;;20.20;99.90;;;;;;4935094;29;20461;-83
2021/09/06 08:42:27;;;;;;;9.40;7.60;;;20.20;98.40;;;;;;4934307;29;20454;-86
2021/09/06 08:44:54;;;;;;;7.67;6.97;;;20.30;98.10;;;;;;4935329;29;20463;-85
2021/09/06 08:47:21;;;;;;;7.77;6.70;;;20.40;98.50;;;;;;4935114;29;20871;-85
2021/09/06 08:49:49;;;;;;;7.03;6.37;;;20.50;97.50;;;;;;4935140;29;20467;-85
2021/09/06 08:52:17;;;;;;;8.60;7.17;;;20.50;97.00;;;;;;4952259;29;20457;-85
2021/09/06 08:54:44;;;;;;;8.93;8.03;;;20.60;97.40;;;;;;4954398;28;20466;-86
2021/09/06 08:57:11;;;;;;;8.27;7.57;;;20.70;98.20;;;;;;4954194;29;20579;-85
2021/09/06 08:59:40;;;;;;;6.83;6.30;;;20.80;98.00;;;;;;4955858;28;20468;-85
2021/09/06 09:02:07;;;;;;;7.57;6.90;;;20.90;98.00;;;;;;4954626;29;20457;-83
2021/09/06 09:04:34;;;;;;;10.53;6.80;;;21.00;97.80;;;;;;4955879;29;20458;-84
2021/09/06 09:07:02;;;;;;;6.83;6.33;;;21.10;98.20;;;;;;4955189;29;20481;-85
2021/09/06 09:09:34;;;;;;;7.67;7.03;;;21.10;98.50;;;;;;4954883;29;20954;-85
2021/09/06 09:12:10;;;;;;;10.63;8.10;;;21.20;98.00;;;;;;4955259;29;20464;-85
2021/09/06 09:14:38;;;;;;;9.30;7.57;;;21.40;98.40;;;;;;4955758;29;20459;-83
2021/09/06 09:17:06;;;;;;;8.07;7.27;;;21.50;97.90;;;;;;4956129;28;20493;-84
2021/09/06 09:19:32;;;;;;;7.70;7.10;;;21.60;97.60;;;;;;4955142;29;20456;-83
2021/09/06 09:22:01;;;;;;;7.03;6.40;;;21.70;97.20;;;;;;4955752;28;20462;-84
2021/09/06 09:24:29;;;;;;;6.90;6.20;;;21.80;96.50;;;;;;4958024;29;20458;-83
2021/09/06 09:26:59;;;;;;;7.20;6.60;;;21.90;96.20;;;;;;4957764;29;21023;-83
2021/09/06 09:29:26;;;;;;;7.17;6.57;;;22.00;96.70;;;;;;4957289;29;21170;-85
2021/09/06 09:31:55;;;;;;;8.00;6.47;;;22.20;96.10;;;;;;4954371;29;20464;-84
2021/09/06 09:34:22;;;;;;;8.03;7.43;;;22.30;94.20;;;;;;4956523;29;20468;-85
2021/09/06 09:36:49;;;;;;;7.40;6.70;;;22.40;94.90;;;;;;4955943;28;20492;-84
2021/09/06 09:39:18;;;;;;;7.50;6.67;;;22.60;94.90;;;;;;4955313;29;20464;-82
2021/09/06 09:41:47;;;;;;;7.83;6.77;;;22.70;95.00;;;;;;4955050;29;20460;-85
2021/09/06 09:44:20;;;;;;;7.03;6.40;;;22.80;94.20;;;;;;4957835;28;20453;-83
2021/09/06 09:46:55;;;;;;;8.07;6.40;;;22.90;94.60;;;;;;4960194;29;20507;-84
2021/09/06 09:49:23;;;;;;;7.50;6.87;;;23.10;93.50;;;;;;4960029;29;20492;-84
2021/09/06 09:51:49;;;;;;;7.50;6.90;;;23.30;93.90;;;;;;4958003;29;20967;-84
2021/09/06 09:54:17;;;;;;;7.63;6.93;;;23.40;93.20;;;;;;4958618;29;20845;-83
2021/09/06 09:56:46;;;;;;;8.30;7.43;;;23.50;93.80;;;;;;4958511;28;21001;-84
2021/09/06 09:59:14;;;;;;;7.80;7.00;;;23.70;93.20;;;;;;4958825;29;20480;-84
2021/09/06 10:01:45;;;;;;;10.10;7.70;;;23.80;92.70;;;;;;4957021;29;20453;-84
2021/09/06 10:04:14;;;;;;;8.30;7.60;;;23.80;91.60;;;;;;4958254;29;20476;-84
2021/09/06 10:06:42;;;;;;;8.73;7.80;;;24.00;92.30;;;;;;4958183;29;20469;-83
2021/09/06 10:09:13;;;;;;;8.40;7.70;;;24.10;91.70;;;;;;4958118;29;20454;-84
2021/09/06 10:11:42;;;;;;;7.50;6.90;;;24.30;91.80;;;;;;4957266;29;20480;-84
2021/09/06 10:14:18;;;;;;;7.53;6.93;;;24.50;91.80;;;;;;4957581;29;20456;-83
2021/09/06 10:16:48;;;;;;;7.77;7.17;;;24.60;91.10;;;;;;4957946;29;20494;-84
2021/09/06 10:19:15;;;;;;;8.50;7.80;;;24.60;90.00;;;;;;4957788;29;20454;-84
2021/09/06 10:21:46;;;;;;;8.27;7.47;;;24.70;90.40;;;;;;4957650;29;20463;-84
2021/09/06 10:24:14;;;;;;;8.40;7.70;;;24.90;90.70;;;;;;4957640;29;20486;-85
2021/09/06 10:26:42;;;;;;;10.07;8.13;;;25.10;91.50;;;;;;4957554;29;20837;-83
2021/09/06 10:29:14;;;;;;;8.27;7.40;;;25.10;87.70;;;;;;4957677;29;20509;-83
2021/09/06 10:31:43;;;;;;;9.50;8.70;;;25.30;89.60;;;;;;4956709;29;20458;-85
2021/09/06 10:34:21;;;;;;;8.90;8.10;;;25.40;89.80;;;;;;4957314;29;20471;-84
2021/09/06 10:36:56;;;;;;;8.57;7.80;;;25.70;88.70;;;;;;4957071;29;20497;-85
2021/09/06 10:39:23;;;;;;;8.30;7.60;;;25.80;86.50;;;;;;4957073;29;21055;-85
2021/09/06 10:41:52;;;;;;;8.23;7.53;;;26.00;83.50;;;;;;4958010;29;20495;-82
2021/09/06 10:44:19;;;;;;;9.80;8.90;;;26.20;85.90;;;;;;4958713;29;20856;-82
2021/09/06 10:46:56;;;;;;;7.90;7.40;;;26.30;86.00;;;;;;4957805;29;20480;-82
2021/09/06 10:49:27;;;;;;;8.37;7.57;;;26.50;86.50;;;;;;4959804;29;20460;-81
2021/09/06 10:51:56;;;;;;;6.73;6.13;;;26.70;85.20;;;;;;4958974;29;20464;-81
2021/09/06 10:54:23;;;;;;;7.70;7.00;;;26.90;79.00;;;;;;4959322;29;20453;-82
2021/09/06 10:56:51;;;;;;;9.33;8.53;;;27.10;79.10;;;;;;4957608;29;20509;-82
2021/09/06 10:59:24;;;;;;;8.23;7.57;;;27.30;78.10;;;;;;4958408;29;20494;-82
2021/09/06 11:01:56;;;;;;;7.53;6.93;;;27.40;79.40;;;;;;4957606;29;20460;-82
2021/09/06 11:04:23;;;;;;;8.00;7.30;;;27.80;83.30;;;;;;4956866;29;20547;-82
2021/09/06 11:07:00;;;;;;;7.80;7.00;;;28.40;79.50;;;;;;4956592;29;20840;-82
2021/09/06 11:09:28;;;;;;;8.17;7.57;;;29.00;75.30;;;;;;4956451;29;20469;-82
2021/09/06 11:12:00;;;;;;;7.50;6.90;;;29.50;74.20;;;;;;4955667;29;20453;-82
2021/09/06 11:14:39;;;;;;;7.97;7.30;;;30.00;68.90;;;;;;4956216;29;20439;-82
2021/09/06 11:17:21;;;;;;;7.90;7.20;;;30.30;67.50;;;;;;4956102;29;20500;-82
2021/09/06 11:19:49;;;;;;;8.93;7.13;;;30.80;66.10;;;;;;4956200;29;20462;-81
2021/09/06 11:22:17;;;;;;;8.00;7.30;;;31.20;66.40;;;;;;4955416;28;20487;-82
2021/09/06 11:24:45;;;;;;;7.80;7.20;;;31.70;61.00;;;;;;4955695;28;20961;-82
2021/09/06 11:27:24;;;;;;;8.00;7.40;;;32.00;59.90;;;;;;4955399;29;20470;-82
2021/09/06 11:29:50;;;;;;;7.87;7.33;;;32.40;61.30;;;;;;4955284;29;20459;-82
2021/09/06 11:32:19;;;;;;;8.10;7.30;;;32.70;57.30;;;;;;4955017;29;20454;-82
2021/09/06 11:34:47;;;;;;;7.40;6.90;;;33.00;58.20;;;;;;4955509;29;20460;-82
2021/09/06 11:37:15;;;;;;;7.67;6.97;;;33.30;56.80;;;;;;4955295;28;20492;-82
2021/09/06 11:39:43;;;;;;;7.17;6.67;;;33.70;54.90;;;;;;4955361;29;20957;-82
2021/09/06 11:42:10;;;;;;;7.43;6.83;;;34.10;53.70;;;;;;4954583;29;20960;-82
2021/09/06 11:44:37;;;;;;;7.73;7.13;;;34.40;51.20;;;;;;4955270;29;20453;-82
2021/09/06 11:47:04;;;;;;;8.30;7.60;;;34.70;51.10;;;;;;4955070;29;20469;-83
2021/09/06 11:49:33;;;;;;;7.80;7.20;;;35.20;51.10;;;;;;4955223;29;20453;-82
2021/09/06 11:52:10;;;;;;;9.50;8.73;;;35.40;48.70;;;;;;4954443;29;20979;-83
2021/09/06 11:54:44;;;;;;;6.93;6.50;;;35.90;49.80;;;;;;4955010;29;20457;-83
2021/09/06 11:57:11;;;;;;;8.87;8.13;;;35.90;46.10;;;;;;4954685;29;20893;-82
2021/09/06 11:59:39;;;;;;;7.87;7.27;;;35.90;46.20;;;;;;4954782;28;20556;-82
2021/09/06 12:02:11;;;;;;;8.03;7.53;;;36.10;46.70;;;;;;4954473;29;20944;-83
2021/09/06 12:04:40;;;;;;;8.20;7.60;;;36.50;45.80;;;;;;4954898;29;20819;-82
2021/09/06 12:07:16;;;;;;;8.80;8.13;;;36.90;44.10;;;;;;4954286;28;20476;-82
2021/09/06 12:09:43;;;;;;;7.63;7.03;;;37.20;46.10;;;;;;4954637;29;20452;-83
2021/09/06 12:12:17;;;;;;;8.40;7.70;;;37.40;43.40;;;;;;4954240;29;20452;-83
2021/09/06 12:14:44;;;;;;;8.10;7.50;;;37.40;43.80;;;;;;4954779;29;20536;-83
2021/09/06 12:17:12;;;;;;;8.70;8.10;;;37.20;42.90;;;;;;4954319;29;20492;-82
2021/09/06 12:19:43;;;;;;;7.70;7.20;;;37.40;45.70;;;;;;4954760;29;20512;-82
2021/09/06 12:22:15;;;;;;;8.30;7.60;;;37.50;42.90;;;;;;4954018;29;20957;-83
2021/09/06 12:24:42;;;;;;;8.40;7.80;;;38.00;44.50;;;;;;4954184;29;20465;-83
2021/09/06 12:27:13;;;;;;;7.57;6.97;;;38.10;41.50;;;;;;4954314;29;20828;-83
2021/09/06 12:29:41;;;;;;;7.10;6.60;;;38.40;41.70;;;;;;4954259;29;20964;-82
2021/09/06 12:32:12;;;;;;;8.03;7.33;;;38.70;41.40;;;;;;4953607;29;20941;-83
2021/09/06 12:34:39;;;;;;;7.97;7.27;;;39.00;40.70;;;;;;4954201;29;20949;-83
2021/09/06 12:37:07;;;;;;;8.50;7.73;;;38.60;38.70;;;;;;4954254;29;20489;-83
2021/09/06 12:39:36;;;;;;;9.43;8.60;;;38.50;39.20;;;;;;4954173;28;20460;-83
2021/09/06 12:42:03;;;;;;;8.20;7.50;;;38.40;38.70;;;;;;4953465;29;20453;-83
2021/09/06 12:44:30;;;;;;;7.83;7.23;;;38.40;37.10;;;;;;4954440;29;20457;-83